Aeroporto :







RITROVATECI SU...

 
LOGIN :

Iscrizione | Disclaimer

   EN    FR    IT 

 









Sommario :    VFR   VFR Marginale   IFR   IFR Intensivo   IFR Molto Intensivo
Visibilità : 
Base nubi : 
>= 8 km
>= 3000ft
5 / 8 km
1000 / 3000 ft
1500m / 5 km
500 / 1000 ft
800 / 1500m
200 / 500 ft
< 800m
< 200 ft
Simboli :   Temporali  Nebbia  Neve Forte  Precipitazioni Forti  Vento > 20 kt






- Altitudine del aeroporto : 881 ft


KNY0 - Fulton County

ULTIMO METAR :
  • 262257Z AUTO 15003KT 10SM CLR 28/16 A3011 RMK AO2

METARs OBSOLETI :
  • 262237Z AUTO 16003KT 10SM CLR 29/16 A3011 RMK AO2
  • 262217Z AUTO 16004KT 10SM CLR 29/16 A3011 RMK AO2
  • 262157Z AUTO 16003KT 10SM CLR 29/17 A3011 RMK AO2
  • 262137Z AUTO 00000KT 10SM CLR 29/16 A3011 RMK AO2
  • 262117Z AUTO 15003KT 10SM CLR 29/17 A3011 RMK AO2
  • 262059Z AUTO 14004KT 10SM CLR 29/17 A3012 RMK AO2
  • 262037Z AUTO 00000KT 10SM CLR 29/16 A3013 RMK AO2
  • 262017Z AUTO 00000KT 10SM CLR 29/17 A3013 RMK AO2

TAF N/A



MetMap, La meteo Aeronautica in un colpo d'occhio ! - Copyright ORBIFLY Dicembre 2007 - Disclaimer

ORBIFLY MET'MAP TEAM :

Programmazione e sviluppo : Alexandra Zaïnal
Concezione : Baudouin d'Aumeries
Aiuto per la programmazione : Marc-Olivier Méhu
Supporto tecnico e logistico : Manuel Goepfert
Aiuto per la traduzione : Arnaldo La Scala

Contatto : metmap@orbifly.com




FONTI E CREDITI :

   NOAA